Terminal Aerodrome Forecast
Issued by NWS

Home | Current Version | Previous Version | Text Only | Print | Product List | Glossary On
Versions: 1 2 3 4 5 6 7 8 9 10 11 12 13 14 15 16 17 18 19 20 21 22 23 24 25 26 27 28 29
000
FTUS45 KSLC 052334
TAFEVW
TAF
KEVW 052334Z 0600/0624 17013G21KT P6SM SCT100 BKN150
     FM060100 16010KT P6SM BKN090 OVC150
     FM061500 10012KT P6SM BKN100 OVC150
     FM061900 10015G22KT P6SM BKN100 OVC150=

USA.gov is the U.S. government's official web portal to all federal, state and local government web resources and services.